Time;durP1;ratioP1;P1;durP2;ratioP2;P2;SDS_P1;SDS_P2;PMS_P1;PMS_P2;Temp;Humidity;BMP_temperature;BMP_pressure;BME280_temperature;BME280_humidity;BME280_pressure;Samples;Min_cycle;Max_cycle;Signal;HPM_P1;HPM_P2
2022/07/18 00:00:43;;;;;;;3.07;2.10;;;15.90;99.90;;;;;;4967217;28;20043;-82
2022/07/18 00:03:09;;;;;;;3.27;2.13;;;15.90;99.90;;;;;;4967991;28;20508;-82
2022/07/18 00:05:35;;;;;;;3.00;1.83;;;15.90;99.90;;;;;;4928874;28;20050;-83
2022/07/18 00:08:01;;;;;;;2.50;1.95;;;15.80;99.90;;;;;;4925208;28;20501;-84
2022/07/18 00:10:27;;;;;;;1.75;1.65;;;15.80;99.90;;;;;;4942690;28;20053;-82
2022/07/18 00:12:53;;;;;;;3.70;2.40;;;15.70;99.90;;;;;;4952676;28;20043;-82
2022/07/18 00:15:18;;;;;;;2.47;2.00;;;15.70;99.90;;;;;;4942619;28;20051;-82
2022/07/18 00:17:44;;;;;;;2.53;2.13;;;15.70;99.90;;;;;;4936719;28;20081;-83
2022/07/18 00:20:11;;;;;;;3.27;2.50;;;15.60;99.90;;;;;;4907800;28;20356;-83
2022/07/18 00:22:36;;;;;;;2.53;1.85;;;15.60;99.90;;;;;;4937611;29;20043;-83
2022/07/18 00:25:03;;;;;;;2.95;2.47;;;15.60;99.90;;;;;;4907430;29;20050;-82
2022/07/18 00:27:29;;;;;;;;;;;15.60;99.90;;;;;;4938699;29;20131;-82
2022/07/18 00:29:54;;;;;;;3.83;2.15;;;15.50;99.90;;;;;;4933846;29;19953;-85
2022/07/18 00:32:20;;;;;;;4.30;2.53;;;15.50;99.90;;;;;;4936194;29;20047;-83
2022/07/18 00:34:46;;;;;;;3.70;2.30;;;15.40;99.90;;;;;;4906903;29;20390;-82
2022/07/18 00:37:11;;;;;;;3.13;2.40;;;15.40;99.90;;;;;;4904118;29;20048;-82
2022/07/18 00:39:37;;;;;;;4.90;2.40;;;15.40;99.90;;;;;;4928482;29;20075;-83
2022/07/18 00:42:03;;;;;;;2.87;2.10;;;15.40;99.90;;;;;;4920541;29;20051;-86
2022/07/18 00:44:29;;;;;;;4.63;2.55;;;15.30;99.90;;;;;;4913030;29;20056;-82
2022/07/18 00:46:59;;;;;;;3.30;2.25;;;15.30;99.90;;;;;;4925024;29;20163;-85
2022/07/18 00:49:24;;;;;;;4.40;2.42;;;15.30;99.90;;;;;;4932367;29;20048;-86
2022/07/18 00:51:51;;;;;;;3.88;2.55;;;15.30;99.90;;;;;;4925311;29;20070;-86
2022/07/18 00:54:17;;;;;;;;;;;15.30;99.90;;;;;;4907724;29;20059;-85
2022/07/18 00:56:43;;;;;;;4.15;2.08;;;15.20;99.90;;;;;;4907537;29;19922;-84
2022/07/18 00:59:11;;;;;;;4.53;1.98;;;15.20;99.90;;;;;;4921978;29;20055;-85
2022/07/18 01:01:43;;;;;;;3.35;2.58;;;15.20;99.90;;;;;;4905293;29;20087;-87
2022/07/18 01:04:11;;;;;;;3.45;2.30;;;15.20;99.90;;;;;;4902595;29;20044;-85
2022/07/18 01:06:37;;;;;;;2.83;2.10;;;15.10;99.90;;;;;;4920139;29;20051;-85
2022/07/18 01:09:03;;;;;;;2.55;2.13;;;15.10;99.90;;;;;;4904502;29;20055;-85
2022/07/18 01:11:29;;;;;;;2.70;2.00;;;15.10;99.90;;;;;;4912043;29;20505;-85
2022/07/18 01:13:55;;;;;;;4.03;2.55;;;15.00;99.90;;;;;;4915095;29;20335;-85
2022/07/18 01:16:21;;;;;;;5.93;2.27;;;15.00;99.90;;;;;;4906686;29;20526;-85
2022/07/18 01:18:47;;;;;;;;;;;15.00;99.90;;;;;;4919669;29;20052;-87
2022/07/18 01:21:14;;;;;;;3.25;2.03;;;14.90;99.90;;;;;;4918298;29;19922;-85
2022/07/18 01:23:40;;;;;;;;;;;14.90;99.90;;;;;;4925293;28;20081;-87
2022/07/18 01:26:05;;;;;;;2.55;2.22;;;14.80;99.90;;;;;;4928661;28;19926;-85
2022/07/18 01:28:31;;;;;;;3.27;2.60;;;14.80;99.90;;;;;;4910475;28;20043;-85
2022/07/18 01:30:57;;;;;;;3.40;2.47;;;14.80;99.90;;;;;;4968395;28;20294;-85
2022/07/18 01:33:23;;;;;;;3.87;2.20;;;14.70;99.90;;;;;;4939969;28;20130;-85
2022/07/18 01:35:51;;;;;;;3.63;2.38;;;14.70;99.90;;;;;;4948731;28;20066;-85
2022/07/18 01:38:19;;;;;;;3.47;1.93;;;14.70;99.90;;;;;;4966177;28;20043;-85
2022/07/18 01:40:45;;;;;;;3.25;2.10;;;14.70;99.90;;;;;;4917879;29;20052;-91
2022/07/18 01:43:11;;;;;;;2.83;2.22;;;14.70;99.90;;;;;;4934003;28;20049;-85
2022/07/18 01:45:37;;;;;;;5.67;2.33;;;14.60;99.90;;;;;;4941148;28;20047;-85
2022/07/18 01:48:03;;;;;;;2.78;2.28;;;14.60;99.90;;;;;;4907570;28;20046;-85
2022/07/18 01:50:28;;;;;;;2.97;2.67;;;14.60;99.90;;;;;;4926488;28;20113;-85
2022/07/18 01:52:54;;;;;;;4.50;2.40;;;14.60;99.90;;;;;;4966125;28;20054;-85
2022/07/18 01:55:20;;;;;;;6.20;2.77;;;14.50;99.90;;;;;;4943454;29;20500;-85
2022/07/18 01:57:45;;;;;;;3.63;2.50;;;14.50;99.90;;;;;;4907845;28;20160;-90
2022/07/18 02:00:12;;;;;;;3.23;2.30;;;14.50;99.90;;;;;;4923597;29;20043;-85
2022/07/18 02:02:38;;;;;;;4.45;2.63;;;14.40;99.90;;;;;;4950181;28;20047;-85
2022/07/18 02:05:06;;;;;;;4.28;2.78;;;14.40;99.90;;;;;;4939850;29;20044;-85
2022/07/18 02:07:35;;;;;;;3.15;2.30;;;14.40;99.90;;;;;;4942611;28;20043;-85
2022/07/18 02:10:06;;;;;;;10.68;2.90;;;14.40;99.90;;;;;;4930876;28;20078;-85
2022/07/18 02:12:32;;;;;;;3.55;2.67;;;14.40;99.90;;;;;;4953649;28;20125;-85
2022/07/18 02:14:57;;;;;;;3.27;2.33;;;14.40;99.90;;;;;;4943494;28;20126;-85
2022/07/18 02:17:23;;;;;;;2.50;1.80;;;14.40;99.90;;;;;;4929669;28;20058;-91
2022/07/18 02:19:49;;;;;;;3.30;2.60;;;14.40;99.90;;;;;;4961772;28;20093;-89
2022/07/18 02:22:15;;;;;;;3.17;2.43;;;14.30;99.90;;;;;;4930910;28;20125;-84
2022/07/18 02:24:41;;;;;;;4.10;2.60;;;14.30;99.90;;;;;;4903457;28;1127768;-85
2022/07/18 02:27:06;;;;;;;3.20;2.30;;;14.30;99.90;;;;;;4944414;29;20382;-85
2022/07/18 02:29:32;;;;;;;3.53;2.33;;;14.30;99.90;;;;;;4940884;29;20295;-85
2022/07/18 02:31:58;;;;;;;5.45;2.58;;;14.20;99.90;;;;;;4943268;28;20078;-85
2022/07/18 02:34:24;;;;;;;3.93;2.13;;;14.20;99.90;;;;;;4915389;28;20468;-85
2022/07/18 02:36:50;;;;;;;6.90;2.87;;;14.20;99.90;;;;;;4948382;28;20039;-89
2022/07/18 02:39:17;;;;;;;4.05;2.45;;;14.20;99.90;;;;;;4932646;28;20059;-85
2022/07/18 02:41:43;;;;;;;3.10;2.47;;;14.20;99.90;;;;;;4950651;28;20050;-85
2022/07/18 02:44:09;;;;;;;4.07;2.60;;;14.20;99.90;;;;;;4939895;28;20509;-85
2022/07/18 02:46:35;;;;;;;2.73;2.23;;;14.10;99.90;;;;;;4938598;29;20043;-84
2022/07/18 02:49:00;;;;;;;2.47;2.10;;;14.20;99.90;;;;;;4924201;28;20111;-85
2022/07/18 02:51:26;;;;;;;4.03;2.63;;;14.10;99.90;;;;;;4915758;29;20060;-85
2022/07/18 02:53:52;;;;;;;4.38;2.50;;;14.10;99.90;;;;;;4954944;28;20650;-89
2022/07/18 02:56:18;;;;;;;5.13;2.92;;;14.10;99.90;;;;;;4928705;28;20087;-85
2022/07/18 02:58:44;;;;;;;5.17;4.00;;;14.10;99.90;;;;;;4952008;28;20080;-85
2022/07/18 03:01:10;;;;;;;3.47;2.63;;;14.10;99.90;;;;;;4933635;28;20051;-85
2022/07/18 03:03:35;;;;;;;4.25;2.80;;;14.10;99.90;;;;;;4934005;28;20054;-85
2022/07/18 03:06:01;;;;;;;3.63;2.43;;;14.00;99.90;;;;;;4929995;29;20048;-85
2022/07/18 03:08:27;;;;;;;5.27;2.90;;;14.00;99.90;;;;;;4951005;29;20069;-84
2022/07/18 03:10:52;;;;;;;4.10;2.93;;;14.00;99.90;;;;;;4937240;29;20135;-85
2022/07/18 03:13:18;;;;;;;3.87;3.33;;;14.00;99.90;;;;;;4911878;28;20035;-85
2022/07/18 03:15:44;;;;;;;4.90;3.00;;;13.90;99.90;;;;;;4914543;28;20069;-90
2022/07/18 03:18:09;;;;;;;4.10;2.93;;;13.90;99.90;;;;;;4920074;28;20397;-85
2022/07/18 03:20:35;;;;;;;4.00;2.60;;;13.90;99.90;;;;;;4952349;28;20077;-85
2022/07/18 03:23:08;;;;;;;6.30;2.97;;;13.90;99.90;;;;;;4936135;28;20051;-85
2022/07/18 03:25:33;;;;;;;4.50;2.60;;;13.90;99.90;;;;;;4925851;28;20486;-85
2022/07/18 03:27:59;;;;;;;4.63;3.33;;;13.90;99.90;;;;;;4911133;29;20058;-86
2022/07/18 03:30:25;;;;;;;3.30;2.57;;;13.90;99.90;;;;;;4932156;28;20397;-85
2022/07/18 03:32:51;;;;;;;5.67;3.20;;;13.90;99.90;;;;;;4946795;28;20054;-85
2022/07/18 03:35:16;;;;;;;3.93;2.70;;;13.90;99.90;;;;;;4949174;28;20055;-85
2022/07/18 03:37:42;;;;;;;3.63;2.23;;;13.90;99.90;;;;;;4934190;28;20047;-85
2022/07/18 03:40:09;;;;;;;3.83;2.60;;;13.90;99.90;;;;;;4944528;28;20043;-85
2022/07/18 03:42:38;;;;;;;;;;;13.90;99.90;;;;;;4974168;28;20146;-87
2022/07/18 03:45:05;;;;;;;3.83;2.50;;;13.90;99.90;;;;;;4950208;28;19937;-85
2022/07/18 03:47:31;;;;;;;4.82;3.30;;;13.90;99.90;;;;;;4966491;28;20574;-85
2022/07/18 03:49:56;;;;;;;8.30;3.50;;;13.90;99.90;;;;;;4936676;29;20129;-85
2022/07/18 03:52:22;;;;;;;5.63;3.07;;;13.80;99.90;;;;;;4956579;28;20054;-85
2022/07/18 03:54:48;;;;;;;3.53;3.13;;;13.90;99.90;;;;;;4938197;29;20046;-84
2022/07/18 03:57:13;;;;;;;4.90;2.97;;;13.90;99.90;;;;;;4926621;28;20078;-85
2022/07/18 03:59:41;;;;;;;3.23;2.70;;;13.90;99.90;;;;;;4929888;28;20046;-84
2022/07/18 04:02:07;;;;;;;5.38;3.53;;;13.90;99.90;;;;;;4932192;28;20074;-87
2022/07/18 04:04:32;;;;;;;5.10;2.50;;;13.90;99.90;;;;;;4936698;28;20074;-85
2022/07/18 04:07:02;;;;;;;3.67;2.93;;;13.90;99.90;;;;;;4940334;28;20047;-85
2022/07/18 04:09:28;;;;;;;4.80;2.42;;;13.90;99.90;;;;;;4917186;28;20046;-85
2022/07/18 04:11:53;;;;;;;6.45;3.55;;;13.90;99.90;;;;;;4903947;29;20424;-86
2022/07/18 04:14:19;;;;;;;3.73;2.67;;;13.90;99.90;;;;;;4945347;28;20054;-85
2022/07/18 04:16:45;;;;;;;3.33;2.72;;;14.00;99.90;;;;;;4957436;28;20117;-85
2022/07/18 04:19:11;;;;;;;4.23;3.03;;;14.00;99.90;;;;;;4944678;28;20043;-85
2022/07/18 04:21:36;;;;;;;8.10;3.40;;;14.00;99.90;;;;;;4924413;29;20129;-85
2022/07/18 04:24:02;;;;;;;7.43;3.03;;;14.00;99.90;;;;;;4937534;29;20051;-85
2022/07/18 04:26:28;;;;;;;3.33;2.80;;;14.00;99.90;;;;;;4954554;28;20482;-85
2022/07/18 04:28:53;;;;;;;5.32;3.03;;;14.00;99.90;;;;;;4948558;28;20042;-85
2022/07/18 04:31:19;;;;;;;8.33;3.30;;;14.00;99.90;;;;;;4904443;29;20083;-84
2022/07/18 04:33:45;;;;;;;6.47;3.97;;;14.10;99.90;;;;;;4936870;29;20053;-85
2022/07/18 04:36:11;;;;;;;5.77;3.83;;;14.10;99.90;;;;;;4906238;29;20051;-85
2022/07/18 04:38:37;;;;;;;6.33;3.70;;;14.20;99.90;;;;;;4924550;28;20102;-84
2022/07/18 04:41:04;;;;;;;5.60;4.03;;;14.30;99.90;;;;;;4928187;28;20106;-84
2022/07/18 04:43:31;;;;;;;6.63;4.13;;;14.30;99.90;;;;;;4926948;29;20490;-84
2022/07/18 04:45:56;;;;;;;5.70;3.50;;;14.40;99.90;;;;;;4953230;29;20055;-85
2022/07/18 04:48:22;;;;;;;8.37;4.20;;;14.50;99.90;;;;;;4942550;28;20045;-84
2022/07/18 04:50:48;;;;;;;5.70;3.70;;;14.60;99.90;;;;;;4932353;28;20086;-84
2022/07/18 04:53:13;;;;;;;5.37;3.10;;;14.70;99.90;;;;;;4929051;28;20375;-85
2022/07/18 04:55:42;;;;;;;6.43;3.70;;;14.70;99.90;;;;;;4939753;28;20041;-86
2022/07/18 04:58:08;;;;;;;6.13;4.00;;;15.60;99.90;;;;;;4939588;28;20102;-90
2022/07/18 05:00:34;;;;;;;3.63;2.67;;;14.80;99.90;;;;;;4938819;28;20498;-84
2022/07/18 05:03:00;;;;;;;6.15;3.40;;;14.90;99.90;;;;;;4941299;29;20044;-84
2022/07/18 05:05:27;;;;;;;5.37;3.30;;;15.00;99.90;;;;;;4940785;28;20114;-85
2022/07/18 05:07:54;;;;;;;6.97;3.65;;;15.00;99.90;;;;;;4949207;29;20367;-84
2022/07/18 05:10:21;;;;;;;6.25;3.47;;;15.10;99.90;;;;;;4921709;29;20517;-84
2022/07/18 05:12:51;;;;;;;4.43;3.58;;;15.10;99.90;;;;;;4937650;29;20494;-84
2022/07/18 05:15:20;;;;;;;4.88;3.33;;;15.20;99.90;;;;;;4945336;28;20090;-85
2022/07/18 05:17:46;;;;;;;6.20;3.35;;;15.20;99.90;;;;;;4932225;29;20126;-85
2022/07/18 05:20:15;;;;;;;4.37;3.50;;;15.30;99.90;;;;;;4952957;28;20183;-91
2022/07/18 05:22:42;;;;;;;6.18;3.30;;;15.30;99.90;;;;;;4954625;28;20043;-85
2022/07/18 05:25:09;;;;;;;6.28;3.90;;;15.40;99.90;;;;;;4942055;28;20051;-85
2022/07/18 05:27:35;;;;;;;7.20;3.63;;;15.40;99.90;;;;;;4936363;29;20047;-85
2022/07/18 05:30:04;;;;;;;5.05;2.80;;;15.50;99.90;;;;;;4929445;28;20046;-85
2022/07/18 05:32:29;;;;;;;5.38;3.00;;;16.10;99.90;;;;;;4942552;28;20105;-85
2022/07/18 05:34:55;;;;;;;6.10;3.30;;;15.50;99.90;;;;;;4967986;28;20058;-86
2022/07/18 05:37:21;;;;;;;4.83;3.37;;;15.50;99.90;;;;;;4919306;29;21330;-85
2022/07/18 05:39:47;;;;;;;8.00;2.65;;;15.50;99.90;;;;;;4930551;28;20053;-84
2022/07/18 05:42:13;;;;;;;6.20;3.40;;;15.60;99.90;;;;;;4936356;28;20449;-84
2022/07/18 05:44:38;;;;;;;2.60;2.40;;;15.60;99.90;;;;;;4926461;29;20197;-85
2022/07/18 05:47:04;;;;;;;4.00;2.57;;;15.70;99.90;;;;;;4940004;29;20494;-84
2022/07/18 05:49:30;;;;;;;3.27;2.57;;;15.70;99.90;;;;;;4925072;28;20046;-84
2022/07/18 05:51:56;;;;;;;6.28;2.72;;;15.80;99.90;;;;;;4957252;28;20373;-85
2022/07/18 05:54:21;;;;;;;2.50;2.20;;;15.90;99.90;;;;;;4960573;28;20451;-84
2022/07/18 05:56:49;;;;;;;5.77;3.23;;;15.90;99.90;;;;;;4911249;29;20042;-87
2022/07/18 05:59:16;;;;;;;2.30;2.03;;;16.00;99.90;;;;;;4949707;29;20111;-90
2022/07/18 06:01:42;;;;;;;3.20;2.28;;;16.10;99.90;;;;;;4946487;28;20086;-84
2022/07/18 06:04:08;;;;;;;4.07;2.55;;;16.10;99.90;;;;;;4925704;29;20043;-85
2022/07/18 06:06:34;;;;;;;3.90;2.55;;;16.20;99.90;;;;;;4926946;29;20047;-85
2022/07/18 06:09:00;;;;;;;4.57;2.13;;;16.30;99.90;;;;;;4926919;28;20039;-83
2022/07/18 06:11:25;;;;;;;3.80;2.50;;;16.40;99.90;;;;;;4924558;29;20058;-84
2022/07/18 06:13:51;;;;;;;2.77;2.30;;;16.40;99.90;;;;;;4938701;28;20054;-84
2022/07/18 06:16:17;;;;;;;3.77;2.10;;;16.50;99.90;;;;;;4927950;28;20046;-83
2022/07/18 06:18:42;;;;;;;3.95;2.25;;;16.60;99.90;;;;;;4940272;28;20137;-84
2022/07/18 06:21:08;;;;;;;3.42;2.72;;;16.60;99.90;;;;;;4959448;28;20049;-84
2022/07/18 06:23:35;;;;;;;2.43;2.13;;;16.70;99.90;;;;;;4942694;28;20062;-84
2022/07/18 06:26:01;;;;;;;5.22;2.38;;;16.80;99.90;;;;;;4941686;28;20291;-85
2022/07/18 06:28:28;;;;;;;2.22;1.88;;;16.90;99.90;;;;;;4939475;29;20057;-85
2022/07/18 06:30:54;;;;;;;2.20;2.00;;;16.90;99.90;;;;;;4961048;28;20043;-84
2022/07/18 06:33:20;;;;;;;2.53;1.88;;;17.00;99.90;;;;;;4940166;29;20047;-83
2022/07/18 06:35:48;;;;;;;1.98;1.58;;;17.10;99.90;;;;;;4941022;29;20054;-83
2022/07/18 06:38:15;;;;;;;2.75;1.80;;;17.10;99.90;;;;;;4939931;29;20122;-83
2022/07/18 06:40:41;;;;;;;5.43;2.10;;;17.30;99.90;;;;;;4924194;29;20039;-85
2022/07/18 06:43:07;;;;;;;2.80;1.88;;;17.40;99.90;;;;;;4928979;29;20568;-85
2022/07/18 06:45:33;;;;;;;2.65;1.30;;;17.60;99.90;;;;;;4930397;29;20118;-84
2022/07/18 06:47:59;;;;;;;3.22;1.13;;;17.80;99.90;;;;;;4940256;28;20490;-83
2022/07/18 06:50:25;;;;;;;3.90;2.08;;;18.10;99.90;;;;;;4935607;28;20051;-85
2022/07/18 06:52:52;;;;;;;1.35;1.15;;;18.10;99.90;;;;;;4941800;28;20039;-83
2022/07/18 06:55:17;;;;;;;;;;;18.20;99.90;;;;;;4939576;29;20446;-83
2022/07/18 06:57:45;;;;;;;3.78;1.92;;;18.30;99.90;;;;;;4922404;28;19982;-85
2022/07/18 07:00:13;;;;;;;3.75;1.48;;;18.50;99.90;;;;;;4927941;29;20056;-82
2022/07/18 07:02:47;;;;;;;2.42;1.67;;;18.60;99.90;;;;;;4955356;28;20562;-84
2022/07/18 07:05:15;;;;;;;7.55;2.15;;;18.80;99.90;;;;;;4939150;28;20039;-84
2022/07/18 07:07:41;;;;;;;2.00;1.58;;;19.00;99.90;;;;;;4930696;28;20105;-84
2022/07/18 07:10:07;;;;;;;6.75;1.70;;;19.20;99.90;;;;;;4930478;28;20062;-89
2022/07/18 07:12:40;;;;;;;4.03;2.78;;;19.40;99.90;;;;;;4925412;29;20053;-84
2022/07/18 07:15:06;;;;;;;2.50;1.42;;;19.50;99.90;;;;;;4924159;29;20083;-84
2022/07/18 07:29:24;;;;;;;3.15;1.15;;;20.10;99.90;;;;;;4986273;28;20110;-83
2022/07/18 07:31:49;;;;;;;;;;;20.40;99.90;;;;;;4907856;29;20377;-84
2022/07/18 07:34:15;;;;;;;1.45;0.95;;;20.50;99.90;;;;;;4921199;29;19923;-87
2022/07/18 07:36:41;;;;;;;2.28;1.67;;;20.60;99.90;;;;;;4917347;29;20119;-87
2022/07/18 07:39:07;;;;;;;3.35;1.42;;;20.70;99.90;;;;;;4919369;29;20428;-86
2022/07/18 07:41:33;;;;;;;2.03;1.38;;;20.80;99.90;;;;;;4903671;29;20051;-87
2022/07/18 07:43:58;;;;;;;3.90;1.75;;;20.90;99.90;;;;;;4923737;29;20051;-86
2022/07/18 07:46:24;;;;;;;2.15;1.63;;;21.00;99.90;;;;;;4916374;29;20111;-86
2022/07/18 07:48:50;;;;;;;3.22;1.25;;;21.10;99.90;;;;;;4916984;29;20047;-86
2022/07/18 07:51:16;;;;;;;1.60;1.17;;;21.30;99.90;;;;;;4939952;29;20078;-86
2022/07/18 07:53:42;;;;;;;;;;;21.30;99.90;;;;;;4901212;29;20483;-86
2022/07/18 07:56:11;;;;;;;2.28;1.38;;;21.30;99.90;;;;;;4916330;29;19929;-90
2022/07/18 07:58:39;;;;;;;1.92;1.35;;;21.30;99.90;;;;;;4904558;29;20039;-84
2022/07/18 08:01:21;;;;;;;4.00;1.52;;;21.30;99.90;;;;;;4888620;29;20044;-84
2022/07/18 08:22:34;;;;;;;3.72;1.52;;;21.90;99.90;;;;;;4937263;28;20039;-84
2022/07/18 08:25:02;;;;;;;4.43;2.10;;;22.00;99.90;;;;;;4902547;29;20119;-86
2022/07/18 08:27:28;;;;;;;1.60;1.30;;;22.00;99.90;;;;;;4901837;29;20052;-85
2022/07/18 08:29:53;;;;;;;3.70;1.75;;;22.00;99.90;;;;;;4946792;29;20541;-85
2022/07/18 08:32:19;;;;;;;2.45;1.30;;;22.20;99.90;;;;;;4903200;29;20043;-84
2022/07/18 08:34:45;;;;;;;2.95;1.23;;;22.20;99.90;;;;;;4900916;29;20052;-86
2022/07/18 08:37:11;;;;;;;4.03;1.83;;;22.30;99.90;;;;;;4907741;29;20056;-90
2022/07/18 08:39:36;;;;;;;6.40;1.60;;;22.40;99.90;;;;;;4914934;29;20127;-91
2022/07/18 08:42:03;;;;;;;1.63;1.13;;;22.40;99.90;;;;;;4904501;29;20475;-90
2022/07/18 08:44:34;;;;;;;1.58;1.48;;;22.50;99.90;;;;;;4887290;29;20050;-90
2022/07/18 08:47:00;;;;;;;5.75;1.17;;;22.70;99.90;;;;;;4900727;29;20111;-89
2022/07/18 08:49:29;;;;;;;2.03;1.10;;;22.70;99.90;;;;;;4903595;29;20052;-90
2022/07/18 08:59:30;;;;;;;2.50;1.42;;;23.00;99.90;;;;;;4940903;29;20042;-91
2022/07/18 09:06:32;;;;;;;3.60;1.25;;;23.20;99.90;;;;;;4939915;29;20054;-91
2022/07/18 09:09:00;;;;;;;1.95;1.20;;;23.30;99.90;;;;;;4923346;29;20399;-91
2022/07/18 09:11:43;;;;;;;1.83;1.13;;;23.30;99.90;;;;;;4907801;29;20380;-91
2022/07/18 09:26:20;;;;;;;3.22;1.08;;;23.10;99.90;;;;;;4903865;29;20052;-90
2022/07/18 09:33:13;;;;;;;1.17;1.02;;;23.20;99.90;;;;;;4954857;29;20050;-90
2022/07/18 09:39:20;;;;;;;3.50;1.20;;;23.40;99.90;;;;;;4956415;28;20046;-88
2022/07/18 09:41:46;;;;;;;2.08;1.20;;;23.50;99.90;;;;;;4908706;29;20466;-89
2022/07/18 09:44:19;;;;;;;3.70;1.88;;;23.60;99.90;;;;;;4924129;29;20050;-89
2022/07/18 09:47:04;;;;;;;1.95;1.13;;;23.80;99.60;;;;;;4950979;28;20078;-92
2022/07/18 09:49:39;;;;;;;1.45;1.35;;;23.80;98.90;;;;;;4917689;28;20051;-87
2022/07/18 09:52:08;;;;;;;2.28;1.30;;;23.80;98.80;;;;;;4956446;28;20067;-94
2022/07/18 09:54:39;;;;;;;1.80;1.45;;;23.90;98.60;;;;;;4935085;29;20126;-90
2022/07/18 09:57:22;;;;;;;1.45;1.02;;;24.00;97.80;;;;;;4939224;29;20047;-91
2022/07/18 09:59:49;;;;;;;1.42;0.98;;;24.00;97.70;;;;;;4924964;29;20126;-93
2022/07/18 10:02:15;;;;;;;3.67;1.30;;;24.10;96.80;;;;;;4941049;29;20049;-93
2022/07/18 10:04:41;;;;;;;;;;;24.10;96.40;;;;;;4926332;29;20103;-88
2022/07/18 10:07:06;;;;;;;2.15;1.42;;;24.20;95.20;;;;;;4957020;28;19973;-93
2022/07/18 10:09:33;;;;;;;5.95;1.27;;;24.30;96.60;;;;;;4926589;29;20401;-94
2022/07/18 10:12:00;;;;;;;3.83;1.85;;;24.40;96.60;;;;;;4931845;28;20042;-95
2022/07/18 10:14:27;;;;;;;;;;;24.60;96.40;;;;;;4973964;28;20127;-95
2022/07/18 10:16:54;;;;;;;2.53;1.70;;;24.70;95.50;;;;;;4939722;29;19922;-94
2022/07/18 10:19:19;;;;;;;0.95;0.85;;;24.70;96.10;;;;;;4908498;29;20051;-94
2022/07/18 10:21:48;;;;;;;1.02;1.02;;;24.80;95.40;;;;;;4926066;28;20099;-94
2022/07/18 10:24:18;;;;;;;2.75;1.45;;;24.90;95.30;;;;;;4959848;28;20117;-94
2022/07/18 10:26:43;;;;;;;4.68;1.15;;;24.90;94.70;;;;;;4933148;29;20508;-94
2022/07/18 10:29:16;;;;;;;3.30;1.33;;;25.00;94.80;;;;;;4922589;28;20047;-95
2022/07/18 10:32:01;;;;;;;4.70;1.33;;;25.00;94.90;;;;;;4942821;28;20046;-93
2022/07/18 10:34:32;;;;;;;1.52;1.33;;;25.10;93.60;;;;;;4941978;28;20501;-91
2022/07/18 10:37:02;;;;;;;1.45;1.35;;;25.10;93.00;;;;;;4952898;28;20074;-94
2022/07/18 10:39:44;;;;;;;4.13;1.30;;;25.20;93.10;;;;;;4941655;28;20051;-93
2022/07/18 10:42:10;;;;;;;1.75;1.30;;;25.30;92.50;;;;;;4930286;29;20044;-91
2022/07/18 10:44:39;;;;;;;4.47;1.85;;;25.30;92.60;;;;;;4923359;29;20106;-92
2022/07/18 10:47:11;;;;;;;2.35;1.35;;;25.40;92.20;;;;;;4913244;28;20042;-94
2022/07/18 10:49:47;;;;;;;2.85;1.50;;;25.50;91.50;;;;;;4939727;28;20047;-93
2022/07/18 10:52:24;;;;;;;2.35;1.27;;;25.50;88.40;;;;;;4923175;29;20047;-94
2022/07/18 10:57:37;;;;;;;3.40;1.33;;;25.70;88.20;;;;;;4892723;28;20044;-93
2022/07/18 11:00:11;;;;;;;1.38;1.27;;;25.80;87.60;;;;;;4905158;29;20119;-93
2022/07/18 11:02:45;;;;;;;4.15;1.80;;;25.80;87.00;;;;;;4920582;29;20060;-93
2022/07/18 11:05:26;;;;;;;2.90;1.75;;;26.00;86.40;;;;;;4923164;29;20078;-88
2022/07/18 11:07:58;;;;;;;2.55;1.88;;;26.00;84.60;;;;;;4920493;29;20099;-90
2022/07/18 11:10:50;;;;;;;3.47;1.88;;;26.10;84.00;;;;;;4901838;29;20491;-91
2022/07/18 11:15:55;;;;;;;3.00;1.60;;;26.20;82.10;;;;;;4936054;29;20061;-90
2022/07/18 11:18:22;;;;;;;2.47;1.73;;;26.20;80.00;;;;;;4935286;29;20047;-91
2022/07/18 11:20:48;;;;;;;2.38;1.45;;;26.20;79.40;;;;;;4919185;29;20138;-92
2022/07/18 11:23:28;;;;;;;3.80;1.45;;;26.30;78.70;;;;;;4886691;29;20502;-94
2022/07/18 11:25:58;;;;;;;3.22;1.75;;;26.40;80.00;;;;;;4915501;29;20048;-93
2022/07/18 11:28:26;;;;;;;5.30;1.75;;;26.50;77.60;;;;;;4919302;29;20044;-95
2022/07/18 11:31:09;;;;;;;3.90;2.10;;;26.50;77.20;;;;;;4921413;29;20131;-88
2022/07/18 11:33:43;;;;;;;3.22;1.90;;;25.80;77.50;;;;;;4912592;29;20142;-95
2022/07/18 11:36:11;;;;;;;4.00;1.73;;;26.60;77.10;;;;;;4912868;29;20051;-96
2022/07/18 11:38:39;;;;;;;2.22;1.27;;;26.10;76.40;;;;;;4924167;29;20044;-96
2022/07/18 11:41:13;;;;;;;2.75;1.77;;;26.80;75.40;;;;;;4913655;29;20055;-96
2022/07/18 11:43:43;;;;;;;2.75;1.80;;;26.80;73.50;;;;;;4913498;29;20056;-96
2022/07/18 11:46:26;;;;;;;2.05;1.73;;;26.80;73.60;;;;;;4916023;29;20462;-96
2022/07/18 11:49:07;;;;;;;3.83;1.55;;;26.80;73.60;;;;;;4919756;28;20039;-96
2022/07/18 11:51:56;;;;;;;;;;;;;;;;;;;;;
2022/07/18 11:54:32;;;;;;;2.83;1.90;;;26.90;70.90;;;;;;5209970;23;20075;-94
2022/07/18 11:57:13;;;;;;;3.50;1.43;;;27.30;72.30;;;;;;5308043;23;20204;-96
2022/07/18 11:59:47;;;;;;;3.72;1.98;;;27.40;72.30;;;;;;5009698;23;20074;-96
2022/07/18 12:02:13;;;;;;;2.45;1.85;;;27.40;69.80;;;;;;4935582;28;20477;-96
2022/07/18 12:04:41;;;;;;;2.95;1.30;;;27.50;71.10;;;;;;4951568;28;20077;-96
2022/07/18 12:07:20;;;;;;;6.32;2.00;;;27.40;71.10;;;;;;5014702;23;20087;-95
2022/07/18 12:09:48;;;;;;;4.30;1.65;;;27.30;69.50;;;;;;4951410;28;20093;-96
2022/07/18 12:12:18;;;;;;;1.52;1.42;;;27.30;71.10;;;;;;4949585;28;20054;-96
2022/07/18 12:15:10;;;;;;;4.78;1.85;;;27.20;70.50;;;;;;4961153;28;20078;-96
2022/07/18 12:17:50;;;;;;;1.63;1.48;;;26.90;68.60;;;;;;4994595;23;20046;-92
2022/07/18 12:20:27;;;;;;;3.55;1.73;;;26.90;69.50;;;;;;4981945;28;20047;-96
2022/07/18 12:23:12;;;;;;;1.48;1.38;;;26.40;69.00;;;;;;4952836;28;20051;-96
2022/07/18 12:25:52;;;;;;;2.47;1.60;;;27.20;69.30;;;;;;4951961;28;20051;-96
2022/07/18 12:28:21;;;;;;;5.13;2.00;;;27.20;69.40;;;;;;4984365;28;20050;-96
2022/07/18 12:30:47;;;;;;;1.88;1.30;;;26.40;68.70;;;;;;4961629;28;20482;-96
2022/07/18 12:33:17;;;;;;;2.55;1.50;;;27.20;68.90;;;;;;4963036;28;20061;-96
2022/07/18 12:35:43;;;;;;;2.38;1.55;;;27.10;68.40;;;;;;4947254;28;20061;-96
2022/07/18 12:38:16;;;;;;;2.78;1.48;;;27.10;68.80;;;;;;4966036;28;20051;-88
2022/07/18 12:40:53;;;;;;;2.53;1.98;;;27.20;69.00;;;;;;5025985;23;20046;-96
2022/07/18 12:43:38;;;;;;;2.35;1.40;;;27.00;69.30;;;;;;4974559;28;20042;-96
2022/07/18 12:48:46;;;;;;;2.83;1.48;;;26.90;69.70;;;;;;4992437;28;20047;-96
2022/07/18 12:53:49;;;;;;;2.03;1.63;;;26.90;69.80;;;;;;5022522;28;20072;-96
2022/07/18 12:56:15;;;;;;;3.60;1.70;;;27.10;70.90;;;;;;4992661;28;20053;-96
2022/07/18 12:58:43;;;;;;;;;;;27.10;70.80;;;;;;5025339;28;20045;-96
2022/07/18 13:01:15;;;;;;;1.67;1.58;;;27.20;70.30;;;;;;5009815;28;19921;-90
2022/07/18 13:03:44;;;;;;;2.00;1.83;;;27.30;69.40;;;;;;4993791;28;20044;-96
2022/07/18 13:06:14;;;;;;;4.78;2.33;;;27.30;69.10;;;;;;4990223;28;20050;-92
2022/07/18 13:08:42;;;;;;;3.22;2.22;;;27.30;69.10;;;;;;5023277;28;20045;-96
2022/07/18 13:11:09;;;;;;;4.72;2.17;;;27.30;69.50;;;;;;5032831;28;20061;-96
2022/07/18 13:13:37;;;;;;;2.67;1.38;;;27.30;69.70;;;;;;5006172;28;20042;-96
2022/07/18 13:16:03;;;;;;;2.05;1.25;;;27.60;69.00;;;;;;5031792;23;20069;-96
2022/07/18 13:18:29;;;;;;;3.95;1.30;;;27.40;68.60;;;;;;4999893;28;20065;-96
2022/07/18 13:20:55;;;;;;;;;;;27.60;69.50;;;;;;4999716;28;20046;-95
2022/07/18 13:23:21;;;;;;;3.50;1.65;;;27.70;68.80;;;;;;5000127;28;19921;-96
2022/07/18 13:25:49;;;;;;;;;;;27.80;69.50;;;;;;4986881;28;20046;-96
2022/07/18 13:28:15;;;;;;;2.63;1.50;;;27.80;68.20;;;;;;5006254;28;20269;-89
2022/07/18 13:30:44;;;;;;;4.35;2.00;;;27.90;68.50;;;;;;5015051;28;20058;-96
2022/07/18 13:33:12;;;;;;;2.25;1.35;;;27.90;67.50;;;;;;4983383;28;20050;-96
2022/07/18 13:35:48;;;;;;;2.75;1.58;;;27.80;67.10;;;;;;5006419;28;20046;-96
2022/07/18 13:38:17;;;;;;;1.92;1.13;;;27.80;65.10;;;;;;5006560;28;20042;-90
2022/07/18 13:40:45;;;;;;;2.88;1.60;;;27.30;67.10;;;;;;4975636;28;20033;-96
2022/07/18 13:43:11;;;;;;;2.38;1.38;;;27.90;67.60;;;;;;5004109;28;20046;-96
2022/07/18 13:45:45;;;;;;;1.90;1.75;;;27.90;66.70;;;;;;4990601;28;20038;-96
2022/07/18 13:48:14;;;;;;;4.40;1.40;;;27.80;66.30;;;;;;4986141;28;20065;-96
2022/07/18 13:53:22;;;;;;;5.10;1.98;;;27.80;67.90;;;;;;5212930;23;19944;-96
2022/07/18 13:56:10;;;;;;;2.53;1.75;;;27.50;66.90;;;;;;5035175;28;20108;-96
2022/07/18 13:59:10;;;;;;;2.88;1.17;;;27.80;66.90;;;;;;5022966;28;20049;-96
2022/07/18 14:01:41;;;;;;;1.95;1.27;;;27.90;68.00;;;;;;5049139;23;20034;-96
2022/07/18 14:04:12;;;;;;;3.55;1.40;;;27.80;67.90;;;;;;5004830;28;20488;-96
2022/07/18 14:06:47;;;;;;;4.80;1.63;;;27.80;66.80;;;;;;5144766;23;20045;-95
2022/07/18 14:11:51;;;;;;;2.83;1.33;;;28.20;67.40;;;;;;5176717;23;20062;-96
2022/07/18 14:14:27;;;;;;;2.28;1.35;;;27.80;66.40;;;;;;4984818;28;20043;-96